• Join FlightAware (Why Join?)
  • Login
  • US Flag 
12:21AM EDT


 

Airport Tracker/Info


-or-


 

Live Flight TrackerFlight Track Log ✈ SWA2702 ✈ 17-Apr-2013 ✈ KSNA - KSFO

Flight Track Log - Related Links

Times and Time Zones

All times are in EDT time to prevent confusion due to time zone crossing. See the SWA2702 flight status page for this flight to view local times or setup timezone preferences in your user account.

Time Position Orientation Groundspeed Altitude Reporting Facility
EDT Latitude Longitude Course Direction KTS MPH feet Rate Location/Type
11:19AM 33.7025 -117.8497 32° Northeast 151 174 2,100  Level Los Angeles Center
11:20AM 33.7525 -117.8128 32° Northeast 200 230 5,200 3,300 Climbing Los Angeles Center
11:21AM 33.7233 -117.7506 119° Southeast 288 331 9,000 3,120 Climbing Los Angeles Center
11:22AM 33.6444 -117.7708 192° South 322 371 11,700 1,980 Climbing Los Angeles Center
11:23AM 33.5692 -117.8775 230° Southwest 338 389 13,100 660 Climbing Los Angeles Center
11:24AM 33.4994 -117.9706 228° Southwest 359 413 13,100 1,740 Level Los Angeles Center
11:25AM 33.4306 -118.0653 229° Southwest 371 427 16,700 3,180 Climbing Los Angeles Center
11:26AM 33.3619 -118.1617 230° Southwest 376 433 19,700 2,820 Climbing Los Angeles Center
11:27AM 33.3550 -118.2775 266° West 353 406 22,600 2,640 Climbing Los Angeles Center
11:28AM 33.3714 -118.3964 279° West 357 411 25,200 2,280 Climbing Los Angeles Center
11:29AM 33.4361 -118.4939 309° West 374 430 27,400 1,980 Climbing Los Angeles Center
11:30AM 33.5150 -118.5853 316° Northwest 389 448 29,300 2,460 Climbing Los Angeles Center
11:31AM 33.6089 -118.6961 316° Northwest 389 448 32,500 2,460 Climbing Los Angeles Center
11:32AM 33.6839 -118.7844 316° Northwest 380 437 34,500 1,800 Climbing Los Angeles Center
11:33AM 33.7594 -118.8728 316° Northwest 377 434 36,200 1,320 Climbing Los Angeles Center
11:34AM 33.8194 -118.9447 315° West 379 436 37,300 840 Climbing Los Angeles Center
11:35AM 33.9083 -119.0508 315° West 374 430 38,000 300 Climbing Los Angeles Center
11:36AM 33.9817 -119.1392 315° West 371 427 38,000  Level Los Angeles Center
11:37AM 34.0547 -119.2247 316° Northwest 369 425 38,000  Level Los Angeles Center
11:38AM 34.1419 -119.3306 315° West 370 426 38,000  Level Los Angeles Center
11:39AM 34.2144 -119.4175 315° West 369 425 38,000  Level Los Angeles Center
11:40AM 34.2869 -119.5033 316° Northwest 367 422 38,000  Level Los Angeles Center
11:42AM 34.3583 -119.5908 315° West 366 421 38,000  Level Los Angeles Center
11:43AM 34.4308 -119.6783 315° West 368 423 38,000  Level Los Angeles Center
11:44AM 34.5033 -119.7669 315° West 369 425 38,000  Level Los Angeles Center
11:45AM 34.5800 -119.8531 317° Northwest 372 428 38,000  Level Los Angeles Center
11:46AM 34.6761 -119.9533 319° Northwest 377 434 38,000  Level Los Angeles Center
11:47AM 34.7550 -120.0392 318° Northwest 379 436 38,000  Level Los Angeles Center
11:48AM 34.8369 -120.1289 318° Northwest 380 437 38,000  Level Los Angeles Center
11:49AM 34.9139 -120.2139 318° Northwest 378 435 38,000  Level Los Angeles Center
11:50AM 34.9914 -120.2981 318° Northwest 377 434 38,000  Level Los Angeles Center
11:51AM 35.0683 -120.3842 318° Northwest 378 435 38,000  Level Los Angeles Center
11:52AM 35.1461 -120.4692 318° Northwest 378 435 38,000  Level Los Angeles Center
11:53AM 35.2381 -120.5731 317° Northwest 377 434 38,000  Level Los Angeles Center
11:54AM 35.3156 -120.6597 318° Northwest 379 436 38,000  Level Los Angeles Center
11:55AM 35.3964 -120.7411 321° Northwest 378 435 38,000  Level Los Angeles Center
11:55AM 35.4356 -120.7761 324° Northwest 382 440 38,000  Level Oakland Center
11:56AM 35.5225 -120.8528 324° Northwest 381 438 38,000  Level Oakland Center
11:58AM 35.6628 -120.9761 324° Northwest 384 442 38,000  Level Los Angeles Center
11:58AM 35.6961 -121.0081 322° Northwest 381 438 38,000  Level Oakland Center
11:59AM 35.7828 -121.0842 325° Northwest 382 440 38,000  Level Oakland Center
12:00PM 35.8675 -121.1619 323° Northwest 377 434 38,000  Level Oakland Center
12:01PM 35.9503 -121.2397 323° Northwest 374 430 38,000 -420 Level Oakland Center
12:02PM 36.0369 -121.3144 325° Northwest 376 433 37,200 -1,620 Descending Oakland Center
12:04PM 36.1192 -121.3894 324° Northwest 368 423 34,800 -2,400 Descending Oakland Center
12:05PM 36.2169 -121.4769 324° Northwest 359 413 32,300 -2,280 Descending Oakland Center
12:06PM 36.2947 -121.5497 323° Northwest 350 403 30,200 -2,040 Descending Oakland Center
12:07PM 36.3708 -121.6181 324° Northwest 338 389 28,200 -1,980 Descending Oakland Center
12:08PM 36.4433 -121.6842 324° Northwest 326 375 26,200 -1,920 Descending Oakland Center
12:09PM 36.5125 -121.7486 323° Northwest 312 359 24,300 -1,860 Descending Oakland Center
12:09PM 36.5667 -121.8000 323° Northwest 297 342 22,800 -1,800 Descending Northern Cal TRACON
12:10PM 36.6333 -121.8667 321° Northwest 291 335 21,000 -1,800 Descending Northern Cal TRACON
12:11PM 36.7000 -121.9167 329° Northwest 289 333 19,300 -1,620 Descending Northern Cal TRACON
12:12PM 36.7667 -121.9667 329° Northwest 278 320 17,800 -1,740 Descending Northern Cal TRACON
12:13PM 36.8500 -121.9833 351° North 270 311 15,900 -1,860 Descending Northern Cal TRACON
12:14PM 36.9167 -122.0167 338° Northwest 266 306 14,100 -1,680 Descending Northern Cal TRACON
12:15PM 36.9278 -122.0128 16° North 264 304 13,700 -1,500 Descending Oakland Center
12:16PM 36.9992 -122.0303 349° North 261 300 12,100 -1,560 Descending Oakland Center
12:17PM 37.0678 -122.0481 348° North 253 291 10,600 -1,080 Descending Oakland Center
12:18PM 37.1353 -122.0647 349° North 248 285 10,000 -660 Descending Oakland Center
12:19PM 37.2142 -122.0858 348° North 243 280 9,300 -1,560 Descending Oakland Center
12:20PM 37.2786 -122.1033 348° North 238 274 6,900 -1,860 Descending Oakland Center
12:21PM 37.3447 -122.1214 348° North 242 278 5,500 -1,020 Descending Oakland Center
12:22PM 37.4061 -122.1381 348° North 234 269 4,900 -300 Descending Oakland Center
12:23PM 37.4658 -122.1528 349° North 223 257 4,900 -540 Level Oakland Center
12:24PM 37.5164 -122.1803 337° Northwest 205 236 3,800 -1,320 Descending Oakland Center
12:25PM 37.5556 -122.2261 317° Northwest 199 229 2,300 -1,260 Descending Oakland Center
12:26PM 37.5783 -122.2817 297° West 185 213 1,300 -900 Descending Oakland Center
12:27PM 37.5972 -122.3283 297° West 169 194 500 -540 Descending Oakland Center
12:28PM 37.6178 -122.3764 298° West 158 182 300 -240 Descending Oakland Center
12:30PM 37.6167 -122.3667 322° Northwest  Level FlightAware Approximate